Terminal Aerodrome Forecast
Issued by NWS Jackson, KY

Home | Current Version | Previous Version | Text Only | Print | Product List | Glossary On
Versions: 1 2 3 4 5 6 7 8 9 10 11 12 13 14 15 16 17 18 19
000
FTUS43 KJKL 281242 AAB
TAFJKL
TAF AMD
KJKL 281242Z 2813/2912 VRB03KT 1/4SM FG VV001
      TEMPO 2813/2815 3SM BR SCT008 BKN050
     FM281500 VRB03KT 3SM BR VCSH BKN015
     FM281700 VRB03KT 3SM SHRA VCTS OVC015CB
     FM282300 VRB03KT 5SM BR VCTS BKN020CB
     FM290100 VRB04KT P6SM BKN025
     FM290900 VRB03KT 3SM BR BKN003=

USA.gov is the U.S. government's official web portal to all federal, state and local government web resources and services.